Time;durP1;ratioP1;P1;durP2;ratioP2;P2;SDS_P1;SDS_P2;PMS_P1;PMS_P2;Temp;Humidity;BMP_temperature;BMP_pressure;BME280_temperature;BME280_humidity;BME280_pressure;Samples;Min_cycle;Max_cycle;Signal;HPM_P1;HPM_P2
2024/01/28 00:00:09;;;;;;;6.18;2.90;;;;;;;0.80;53.62;102774.31;674779;29;1307;-84
2024/01/28 00:00:33;;;;;;;3.10;2.75;;;;;;;0.86;53.42;102781.78;674270;29;1496;-84
2024/01/28 00:00:54;;;;;;;2.97;2.67;;;;;;;0.83;53.59;102776.28;674724;29;1198;-85
2024/01/28 00:01:14;;;;;;;3.30;3.00;;;;;;;0.80;53.75;102771.75;674712;29;1048;-84
2024/01/28 00:01:35;;;;;;;3.00;2.70;;;;;;;0.79;53.26;102767.38;673126;29;1584;-85
2024/01/28 00:01:56;;;;;;;3.47;3.05;;;;;;;0.79;53.39;102776.75;677430;29;787;-85
2024/01/28 00:02:17;;;;;;;3.75;2.72;;;;;;;0.78;53.41;102773.28;674774;29;1167;-84
2024/01/28 00:02:38;;;;;;;5.47;2.55;;;;;;;0.87;53.39;102790.38;674344;29;1899;-85
2024/01/28 00:02:58;;;;;;;4.30;2.00;;;;;;;0.87;53.30;102782.66;677384;29;1286;-85
2024/01/28 00:03:20;;;;;;;3.60;1.92;;;;;;;0.79;53.35;102775.09;676919;29;1030;-85
2024/01/28 00:03:41;;;;;;;2.00;1.90;;;;;;;0.87;53.43;102786.16;675902;29;1485;-85
2024/01/28 00:04:01;;;;;;;2.60;2.40;;;;;;;0.83;53.28;102777.97;674807;29;781;-84
2024/01/28 00:04:22;;;;;;;2.63;2.42;;;;;;;0.78;53.44;102770.69;674658;29;1287;-85
2024/01/28 00:04:43;;;;;;;3.30;2.72;;;;;;;0.86;53.27;102779.19;675858;29;1556;-85
2024/01/28 00:05:04;;;;;;;2.40;2.20;;;;;;;0.83;53.21;102775.41;679834;29;1199;-85
2024/01/28 00:05:25;;;;;;;3.03;2.55;;;;;;;0.85;53.40;102784.19;674708;29;1249;-85
2024/01/28 00:05:47;;;;;;;3.90;2.93;;;;;;;0.80;53.20;102774.31;676058;29;1457;-85
2024/01/28 00:06:07;;;;;;;3.70;2.92;;;;;;;0.78;53.43;102777.53;673995;29;1240;-85
2024/01/28 00:06:28;;;;;;;4.33;2.87;;;;;;;0.76;53.60;102771.28;674611;29;1137;-85
2024/01/28 00:06:49;;;;;;;5.90;3.60;;;;;;;0.78;53.09;102777.53;678725;29;1536;-85
2024/01/28 00:07:09;;;;;;;11.43;4.13;;;;;;;0.82;53.54;102782.19;682631;29;1010;-85
2024/01/28 00:07:30;;;;;;;10.60;4.30;;;;;;;0.77;53.53;102774.03;677333;29;1055;-85
2024/01/28 00:07:51;;;;;;;9.73;3.80;;;;;;;0.80;53.08;102778.56;671975;29;1662;-84
2024/01/28 00:08:11;;;;;;;5.07;3.60;;;;;;;0.80;53.55;102776.91;674678;29;1040;-84
2024/01/28 00:08:32;;;;;;;4.13;2.88;;;;;;;0.79;53.58;102785.38;676917;29;1406;-84
2024/01/28 00:08:52;;;;;;;2.58;2.38;;;;;;;0.75;53.44;102766.91;679966;29;924;-85
2024/01/28 00:09:13;;;;;;;4.10;2.23;;;;;;;0.75;53.38;102775.53;676781;29;1089;-85
2024/01/28 00:09:34;;;;;;;6.05;2.42;;;;;;;0.75;53.08;102767.84;677081;29;1483;-84
2024/01/28 00:09:54;;;;;;;6.18;2.53;;;;;;;0.73;53.24;102769.31;677302;29;1359;-85
2024/01/28 00:14:15;;;;;;;4.35;2.90;;;;;;;0.71;53.09;102775.97;682809;29;701;-85
2024/01/28 00:14:54;;;;;;;5.13;2.90;;;;;;;0.73;53.29;102771.88;680071;29;743;-85
2024/01/28 00:15:33;;;;;;;5.28;2.55;;;;;;;0.75;53.11;102783.25;679810;28;1535;-85
2024/01/28 00:15:55;;;;;;;5.55;2.67;;;;;;;0.72;53.12;102784.59;674694;29;1427;-85
2024/01/28 00:16:17;;;;;;;6.40;2.70;;;;;;;0.77;53.10;102786.88;678828;29;1404;-85
2024/01/28 00:16:38;;;;;;;4.78;2.67;;;;;;;0.72;53.38;102787.19;676902;29;1848;-85
2024/01/28 00:16:58;;;;;;;3.47;2.80;;;;;;;0.73;53.27;102789.00;674829;29;807;-84
2024/01/28 00:17:19;;;;;;;3.42;2.70;;;;;;;0.73;53.31;102789.00;674726;29;1000;-84
2024/01/28 00:17:40;;;;;;;3.08;2.53;;;;;;;0.66;53.39;102766.91;675191;29;1546;-85
2024/01/28 00:18:00;;;;;;;2.70;2.37;;;;;;;0.71;53.17;102782.78;674736;29;1443;-85
2024/01/28 00:18:21;;;;;;;2.97;2.65;;;;;;;0.70;53.37;102774.16;674765;29;1182;-84
2024/01/28 00:18:42;;;;;;;3.60;3.03;;;;;;;0.71;53.33;102780.22;675988;29;1481;-84
2024/01/28 00:19:02;;;;;;;3.75;3.03;;;;;;;0.63;53.41;102764.94;674224;29;1314;-85
2024/01/28 00:19:23;;;;;;;3.30;3.00;;;;;;;0.65;53.29;102757.34;679931;29;1239;-85
2024/01/28 00:19:43;;;;;;;3.00;2.83;;;;;;;0.67;53.25;102769.63;679609;29;1461;-85
2024/01/28 00:20:05;;;;;;;3.65;3.05;;;;;;;0.74;53.07;102786.59;680032;29;1018;-85
2024/01/28 00:20:28;;;;;;;4.13;2.63;;;;;;;0.74;53.46;102775.38;677244;29;1276;-85
2024/01/28 00:20:49;;;;;;;4.90;2.85;;;;;;;0.64;53.13;102765.81;674322;29;1689;-85
2024/01/28 00:21:09;;;;;;;4.00;2.80;;;;;;;0.70;53.37;102779.31;677108;29;1245;-85
2024/01/28 00:21:30;;;;;;;2.97;2.28;;;;;;;0.65;53.24;102767.63;677272;29;1083;-85
2024/01/28 00:21:51;;;;;;;1.98;1.88;;;;;;;0.70;53.43;102774.16;676989;29;1633;-85
2024/01/28 00:22:11;;;;;;;2.85;2.65;;;;;;;0.66;53.21;102769.47;679736;29;1285;-85
2024/01/28 00:22:32;;;;;;;3.60;2.90;;;;;;;0.66;53.40;102757.53;679729;29;1947;-84
2024/01/28 00:22:53;;;;;;;3.70;2.83;;;;;;;0.66;53.39;102761.78;676814;29;1428;-85
2024/01/28 00:23:13;;;;;;;2.88;2.50;;;;;;;0.71;53.45;102770.84;679571;29;1329;-85
2024/01/28 00:23:35;;;;;;;2.97;2.78;;;;;;;0.64;53.13;102755.56;676688;29;1610;-84
2024/01/28 00:23:56;;;;;;;4.07;3.67;;;;;;;0.63;53.09;102756.31;679837;29;1413;-85
2024/01/28 00:24:18;;;;;;;3.95;3.42;;;;;;;0.67;53.49;102769.63;677157;29;1159;-84
2024/01/28 00:24:38;;;;;;;9.70;3.67;;;;;;;0.61;53.03;102761.28;679564;29;1472;-84
2024/01/28 00:24:59;;;;;;;9.03;3.30;;;;;;;0.67;53.33;102774.75;674669;29;779;-84
2024/01/28 00:25:20;;;;;;;9.57;3.35;;;;;;;0.62;53.35;102764.78;673988;29;1654;-83
2024/01/28 00:30:04;;;;;;;3.63;3.08;;;;;;;0.72;53.52;102772.66;682859;28;1481;-84
2024/01/28 00:30:30;;;;;;;3.60;3.13;;;;;;;0.62;53.25;102754.50;685240;28;855;-85
2024/01/28 00:30:51;;;;;;;3.78;2.83;;;;;;;0.64;53.12;102750.41;679620;29;1496;-85
2024/01/28 00:31:12;;;;;;;3.63;2.58;;;;;;;0.69;53.29;102762.06;676845;29;1606;-84
2024/01/28 00:31:33;;;;;;;3.98;2.60;;;;;;;0.60;53.11;102749.19;677245;29;963;-85
2024/01/28 00:31:53;;;;;;;3.17;2.40;;;;;;;0.60;53.17;102751.75;679586;29;1551;-85
2024/01/28 00:32:14;;;;;;;10.67;2.40;;;;;;;0.60;53.46;102750.88;682478;29;1476;-85
2024/01/28 00:32:35;;;;;;;10.95;2.85;;;;;;;0.64;53.33;102761.63;681971;28;1498;-84
2024/01/28 00:32:55;;;;;;;12.40;3.47;;;;;;;0.63;53.29;102756.31;679852;29;809;-85
2024/01/28 00:33:16;;;;;;;4.93;3.40;;;;;;;0.59;53.21;102746.50;672059;29;1329;-85
2024/01/28 00:33:37;;;;;;;5.78;3.70;;;;;;;0.60;53.06;102754.34;674433;29;1780;-85
2024/01/28 00:33:57;;;;;;;4.38;3.28;;;;;;;0.61;53.33;102752.69;677015;29;1720;-85
2024/01/28 00:34:18;;;;;;;3.08;2.78;;;;;;;0.62;53.42;102754.50;674552;29;1165;-85
2024/01/28 00:34:39;;;;;;;2.40;2.30;;;;;;;0.57;53.26;102750.53;672333;29;1560;-85
2024/01/28 00:34:59;;;;;;;2.90;2.70;;;;;;;0.58;53.57;102755.84;677362;29;997;-84
2024/01/28 00:35:20;;;;;;;3.33;3.03;;;;;;;0.60;53.43;102756.91;674651;29;1239;-86
2024/01/28 00:35:40;;;;;;;3.47;2.88;;;;;;;0.58;53.58;102757.50;671584;29;1577;-85
2024/01/28 00:36:01;;;;;;;4.67;2.87;;;;;;;0.53;53.29;102750.25;674632;29;1054;-85
2024/01/28 00:36:22;;;;;;;5.13;2.80;;;;;;;0.60;53.62;102756.00;677251;29;853;-85
2024/01/28 00:36:43;;;;;;;6.80;3.50;;;;;;;0.56;53.50;102748.72;676972;29;1463;-85
2024/01/28 00:37:03;;;;;;;5.80;3.20;;;;;;;0.64;53.46;102768.41;677242;29;1005;-86
2024/01/28 00:37:24;;;;;;;4.13;3.50;;;;;;;0.56;53.19;102759.00;679238;29;1121;-85
2024/01/28 00:37:44;;;;;;;3.90;3.60;;;;;;;0.55;53.33;102757.19;676951;29;1634;-85
2024/01/28 00:38:05;;;;;;;4.90;4.50;;;;;;;0.52;53.29;102748.44;674715;29;1055;-85
2024/01/28 00:38:31;;;;;;;4.57;4.18;;;;;;;0.53;53.63;102754.47;674664;29;1170;-85
2024/01/28 00:38:53;;;;;;;3.80;3.50;;;;;;;0.53;53.08;102752.81;676885;29;1583;-84
2024/01/28 00:39:13;;;;;;;3.30;3.08;;;;;;;0.59;53.39;102764.47;678394;29;1465;-85
2024/01/28 00:39:35;;;;;;;3.40;3.20;;;;;;;0.53;53.30;102752.81;674399;29;1488;-84
2024/01/28 00:39:56;;;;;;;3.15;2.90;;;;;;;0.56;53.36;102743.59;674772;29;1388;-85
2024/01/28 00:40:17;;;;;;;3.27;2.97;;;;;;;0.60;53.65;102762.03;674537;29;992;-84
2024/01/28 00:40:38;;;;;;;3.80;3.35;;;;;;;0.54;53.39;102756.31;679541;29;1473;-85
2024/01/28 00:40:59;;;;;;;3.67;3.10;;;;;;;0.54;53.31;102751.16;680006;29;777;-85
2024/01/28 00:41:28;;;;;;;3.63;3.03;;;;;;;0.50;53.74;102734.53;679868;29;1158;-84
2024/01/28 00:41:49;;;;;;;2.90;2.70;;;;;;;0.60;53.86;102750.88;684203;28;1546;-85
2024/01/28 00:42:09;;;;;;;3.00;2.80;;;;;;;0.58;53.77;102752.34;684233;28;1227;-85
2024/01/28 00:42:30;;;;;;;2.87;2.40;;;;;;;0.63;53.53;102758.88;677179;29;1988;-85
2024/01/28 00:42:51;;;;;;;3.00;2.50;;;;;;;0.59;53.65;102749.94;676723;29;1628;-85
2024/01/28 00:43:11;;;;;;;3.78;2.88;;;;;;;0.60;53.69;102744.06;679833;29;979;-85
2024/01/28 00:43:32;;;;;;;4.22;3.25;;;;;;;0.62;53.58;102758.00;679911;29;993;-85
2024/01/28 00:43:53;;;;;;;5.00;3.70;;;;;;;0.65;53.24;102749.66;682295;29;1708;-85
2024/01/28 00:44:14;;;;;;;4.40;3.33;;;;;;;0.63;53.40;102757.22;674647;29;1168;-85
2024/01/28 00:44:35;;;;;;;4.07;3.07;;;;;;;0.54;53.38;102738.31;676986;29;1477;-84
2024/01/28 00:44:55;;;;;;;4.60;2.85;;;;;;;0.55;53.75;102737.56;677269;29;793;-85
2024/01/28 00:45:16;;;;;;;6.17;2.97;;;;;;;0.61;53.41;102747.53;680550;29;1245;-85
2024/01/28 00:45:39;;;;;;;6.18;2.63;;;;;;;0.60;53.65;102751.75;679486;29;1476;-84
2024/01/28 00:46:00;;;;;;;5.72;3.08;;;;;;;0.56;53.14;102741.03;679786;29;1335;-85
2024/01/28 00:46:22;;;;;;;5.03;2.97;;;;;;;0.56;53.55;102741.94;679677;29;1656;-84
2024/01/28 00:46:42;;;;;;;7.25;3.95;;;;;;;0.52;53.34;102732.09;682159;28;1628;-84
2024/01/28 00:47:03;;;;;;;11.70;3.90;;;;;;;0.50;53.55;102737.09;679727;29;1200;-85
2024/01/28 00:47:23;;;;;;;9.70;3.47;;;;;;;0.52;53.52;102735.59;679859;29;1298;-85
2024/01/28 00:47:44;;;;;;;6.88;2.78;;;;;;;0.55;53.82;102741.78;679585;29;1563;-84
2024/01/28 00:48:05;;;;;;;2.90;2.70;;;;;;;0.49;53.58;102735.25;677065;29;1625;-84
2024/01/28 00:48:25;;;;;;;3.50;3.20;;;;;;;0.57;53.72;102742.84;677352;29;1161;-85
2024/01/28 00:48:46;;;;;;;3.73;3.10;;;;;;;0.52;53.57;102737.22;678103;29;1566;-85
2024/01/28 00:49:07;;;;;;;4.63;3.53;;;;;;;0.48;53.66;102728.31;679285;29;980;-84
2024/01/28 00:49:29;;;;;;;3.38;3.08;;;;;;;0.49;53.24;102729.22;682481;29;1149;-85
2024/01/28 00:49:50;;;;;;;3.65;3.35;;;;;;;0.51;53.48;102736.34;681721;28;1531;-84
2024/01/28 00:50:10;;;;;;;2.45;2.30;;;;;;;0.56;53.58;102741.03;673326;29;1725;-84
2024/01/28 00:50:31;;;;;;;2.85;2.35;;;;;;;0.50;53.60;102729.41;677175;29;1058;-85
2024/01/28 00:50:52;;;;;;;2.50;2.30;;;;;;;0.48;53.71;102730.88;676988;29;1519;-84
2024/01/28 00:51:13;;;;;;;3.33;2.83;;;;;;;0.57;53.50;102740.25;677143;29;1063;-84
2024/01/28 00:51:33;;;;;;;3.35;2.90;;;;;;;0.58;53.25;102747.22;677085;29;1586;-85
2024/01/28 00:51:54;;;;;;;3.20;2.83;;;;;;;0.45;53.21;102730.59;674366;29;1458;-85
2024/01/28 00:52:15;;;;;;;5.00;3.50;;;;;;;0.47;53.72;102733.31;677205;29;1124;-84
2024/01/28 00:52:36;;;;;;;5.13;3.80;;;;;;;0.49;53.63;102737.81;676767;29;1559;-85
2024/01/28 00:52:56;;;;;;;6.78;4.03;;;;;;;0.46;53.62;102727.25;677224;29;1079;-85
2024/01/28 00:53:18;;;;;;;3.53;3.08;;;;;;;0.47;53.59;102734.19;674645;29;1303;-84
2024/01/28 00:53:38;;;;;;;5.55;2.75;;;;;;;0.47;53.60;102730.75;678274;29;1524;-85
2024/01/28 00:53:59;;;;;;;4.18;2.30;;;;;;;0.55;53.68;102741.78;672227;29;796;-85
2024/01/28 00:54:20;;;;;;;4.00;1.92;;;;;;;0.49;53.79;102737.81;677106;29;1287;-84
2024/01/28 00:54:40;;;;;;;2.58;2.38;;;;;;;0.43;53.28;102720.91;676919;29;1441;-84
2024/01/28 00:55:01;;;;;;;2.80;2.60;;;;;;;0.49;53.75;102742.97;677069;29;1675;-84
2024/01/28 00:55:22;;;;;;;3.35;2.90;;;;;;;0.46;53.78;102727.25;677179;29;1124;-85
2024/01/28 00:55:42;;;;;;;6.05;3.00;;;;;;;0.51;53.60;102736.34;679593;29;1507;-85
2024/01/28 00:56:03;;;;;;;5.57;2.83;;;;;;;0.46;53.61;102727.25;677218;29;1077;-85
2024/01/28 00:56:25;;;;;;;5.18;2.88;;;;;;;0.49;53.80;102732.69;673897;29;1264;-85
2024/01/28 00:56:45;;;;;;;2.60;2.40;;;;;;;0.46;53.47;102726.31;674346;29;1520;-85
2024/01/28 00:57:06;;;;;;;2.83;2.63;;;;;;;0.48;53.94;102732.56;677198;29;1160;-84
2024/01/28 00:57:27;;;;;;;3.40;3.10;;;;;;;0.49;53.39;102737.81;674660;29;994;-85
2024/01/28 00:57:47;;;;;;;5.80;3.27;;;;;;;0.45;53.76;102728.00;674528;29;1491;-85
2024/01/28 00:58:09;;;;;;;5.70;2.87;;;;;;;0.47;53.72;102723.94;674606;29;1229;-85
2024/01/28 00:58:29;;;;;;;5.88;2.96;;;;;;;0.44;53.64;102731.34;677150;29;1294;-84
2024/01/28 00:58:50;;;;;;;6.20;3.30;;;;;;;0.45;53.71;102725.44;677074;29;1525;-84
2024/01/28 00:59:11;;;;;;;6.10;3.75;;;;;;;0.51;53.68;102733.78;676628;29;1174;-84
2024/01/28 00:59:31;;;;;;;9.77;3.60;;;;;;;0.48;53.93;102735.13;674331;29;1290;-84
2024/01/28 00:59:52;;;;;;;7.38;2.88;;;;;;;0.53;53.75;102736.47;671681;29;1511;-84
2024/01/28 01:00:13;;;;;;;12.27;2.60;;;;;;;0.52;53.60;102743.28;669473;29;996;-85
2024/01/28 01:00:34;;;;;;;7.45;1.98;;;;;;;0.44;53.79;102720.13;669570;29;1147;-85
2024/01/28 01:00:55;;;;;;;7.03;2.20;;;;;;;0.50;53.62;102733.59;671987;29;1037;-85
2024/01/28 01:01:16;;;;;;;2.40;2.20;;;;;;;0.42;53.50;102730.28;671806;29;1210;-85
2024/01/28 01:01:37;;;;;;;3.28;2.97;;;;;;;0.49;53.69;102737.81;677195;29;1594;-85
2024/01/28 01:01:58;;;;;;;4.05;3.35;;;;;;;0.46;53.41;102726.31;677373;29;789;-85
2024/01/28 01:02:18;;;;;;;5.80;4.22;;;;;;;0.46;53.67;102724.69;679741;29;1261;-85
2024/01/28 01:02:39;;;;;;;4.97;3.80;;;;;;;0.44;53.75;102723.63;674234;29;1919;-85
2024/01/28 01:02:59;;;;;;;4.60;3.97;;;;;;;0.52;53.36;102738.16;672135;29;770;-85
2024/01/28 01:03:20;;;;;;;3.50;3.20;;;;;;;0.47;53.61;102730.75;672057;29;1198;-84
2024/01/28 01:03:41;;;;;;;3.85;3.38;;;;;;;0.43;53.58;102723.47;676898;29;1566;-85
2024/01/28 01:04:01;;;;;;;3.53;2.77;;;;;;;0.43;53.53;102716.69;677244;29;1158;-84
2024/01/28 01:04:22;;;;;;;3.38;2.50;;;;;;;0.51;53.61;102735.44;677371;29;725;-85
2024/01/28 01:04:43;;;;;;;4.30;2.20;;;;;;;0.45;53.82;102720.31;676917;29;1567;-85
2024/01/28 01:05:05;;;;;;;3.90;2.60;;;;;;;0.48;53.91;102724.84;677230;29;1051;-85
2024/01/28 01:05:25;;;;;;;3.92;3.00;;;;;;;0.46;53.81;102722.13;682241;28;1024;-85
2024/01/28 01:05:46;;;;;;;3.70;3.10;;;;;;;0.48;53.84;102723.16;679348;29;1605;-84
2024/01/28 01:06:07;;;;;;;5.05;3.47;;;;;;;0.47;53.80;102721.34;681663;29;1155;-84
2024/01/28 01:06:28;;;;;;;11.30;3.90;;;;;;;0.49;53.66;102727.56;677207;29;1164;-86
2024/01/28 01:06:49;;;;;;;11.05;3.80;;;;;;;0.55;53.76;102731.50;679557;29;1480;-85
2024/01/28 01:07:10;;;;;;;9.45;3.00;;;;;;;0.50;53.59;102726.81;682440;29;1214;-85
2024/01/28 01:07:30;;;;;;;2.83;2.37;;;;;;;0.47;53.83;102718.78;677079;29;992;-85
2024/01/28 01:07:51;;;;;;;5.93;2.90;;;;;;;0.47;53.43;102718.78;676450;29;1493;-84
2024/01/28 01:08:12;;;;;;;8.50;3.40;;;;;;;0.56;53.55;102736.81;674740;29;999;-86
2024/01/28 01:08:33;;;;;;;8.10;3.03;;;;;;;0.59;53.70;102739.66;677059;29;1505;-84
2024/01/28 01:08:53;;;;;;;4.75;2.70;;;;;;;0.47;53.42;102723.03;676838;29;1531;-84
2024/01/28 01:09:15;;;;;;;4.27;3.03;;;;;;;0.51;53.41;102730.28;673891;29;1362;-83
2024/01/28 01:09:36;;;;;;;4.05;2.95;;;;;;;0.49;53.33;102724.09;672408;29;1520;-84
2024/01/28 01:09:56;;;;;;;3.30;3.00;;;;;;;0.53;53.51;102724.56;677196;29;1343;-85
2024/01/28 01:10:17;;;;;;;3.00;2.05;;;;;;;0.50;53.59;102723.34;674678;29;995;-85
2024/01/28 01:10:38;;;;;;;4.63;2.30;;;;;;;0.50;53.44;102725.91;675443;29;1685;-84
2024/01/28 01:11:03;;;;;;;6.63;2.30;;;;;;;0.51;53.39;102728.63;677367;29;892;-84
2024/01/28 01:11:23;;;;;;;4.52;2.26;;;;;;;0.51;53.71;102726.06;676546;29;836;-85
2024/01/28 01:11:44;;;;;;;2.87;2.60;;;;;;;0.55;53.48;102727.28;675821;29;1758;-84
2024/01/28 01:12:06;;;;;;;3.25;3.05;;;;;;;0.52;53.35;102724.38;672095;29;1126;-84
2024/01/28 01:12:27;;;;;;;3.78;3.47;;;;;;;0.57;53.45;102730.91;671902;29;1149;-85
2024/01/28 01:12:47;;;;;;;3.35;3.05;;;;;;;0.51;53.54;102720.94;673486;29;1482;-85
2024/01/28 01:13:08;;;;;;;2.73;2.53;;;;;;;0.52;53.70;102720.16;674512;29;1177;-85
2024/01/28 01:13:34;;;;;;;2.30;2.20;;;;;;;0.55;53.39;102717.00;671993;29;1187;-85
2024/01/28 01:13:55;;;;;;;2.67;2.47;;;;;;;0.56;53.68;102720.47;672135;29;1269;-85
2024/01/28 01:14:16;;;;;;;5.85;3.28;;;;;;;0.57;53.37;102719.72;674624;29;1143;-84
2024/01/28 01:14:37;;;;;;;6.00;3.40;;;;;;;0.61;53.50;102721.84;674305;29;1618;-85
2024/01/28 01:14:58;;;;;;;4.97;2.65;;;;;;;0.61;53.40;102729.56;674721;29;876;-85
2024/01/28 01:15:18;;;;;;;1.90;1.80;;;;;;;0.67;53.38;102735.31;674480;29;1120;-84
2024/01/28 01:15:39;;;;;;;7.20;2.45;;;;;;;0.57;53.34;102715.50;676976;29;1492;-85
2024/01/28 01:16:00;;;;;;;7.40;2.80;;;;;;;0.61;53.27;102721.84;677044;29;1104;-84
2024/01/28 01:16:20;;;;;;;8.30;3.60;;;;;;;0.61;53.48;102720.16;672114;29;1099;-85
2024/01/28 01:16:41;;;;;;;5.45;3.38;;;;;;;0.55;53.47;102718.66;676474;29;1470;-85
2024/01/28 01:17:02;;;;;;;5.73;3.63;;;;;;;0.58;53.12;102721.50;674428;29;1162;-84
2024/01/28 01:17:23;;;;;;;5.00;2.72;;;;;;;0.59;53.33;102729.38;676801;29;1618;-84
2024/01/28 01:17:44;;;;;;;3.40;3.08;;;;;;;0.53;53.30;102721.97;674239;29;1484;-84
2024/01/28 01:18:05;;;;;;;3.38;2.67;;;;;;;0.57;53.39;102722.28;671985;29;1243;-84
2024/01/28 01:18:26;;;;;;;3.45;3.15;;;;;;;0.53;53.53;102716.84;677307;29;820;-84
2024/01/28 01:18:46;;;;;;;3.13;2.53;;;;;;;0.55;53.31;102723.78;676988;29;1568;-84
2024/01/28 01:19:07;;;;;;;4.80;3.00;;;;;;;0.55;53.46;102731.50;676949;29;1038;-84
2024/01/28 01:19:28;;;;;;;8.77;3.47;;;;;;;0.55;53.59;102726.38;676969;29;1748;-84
2024/01/28 01:19:48;;;;;;;9.68;4.03;;;;;;;0.57;53.69;102728.34;676211;29;1480;-85
2024/01/28 01:20:09;;;;;;;10.82;4.05;;;;;;;0.61;53.45;102729.56;674626;29;987;-85
2024/01/28 01:20:30;;;;;;;5.25;2.80;;;;;;;0.60;53.56;102728.63;674582;29;1196;-85
2024/01/28 01:20:51;;;;;;;2.87;2.23;;;;;;;0.59;53.35;102736.22;676943;29;1426;-85
2024/01/28 01:21:12;;;;;;;3.03;2.63;;;;;;;0.51;53.58;102720.00;677166;29;1115;-85
2024/01/28 01:21:32;;;;;;;4.40;3.42;;;;;;;0.51;53.29;102725.16;679811;29;1099;-85
2024/01/28 01:21:53;;;;;;;5.10;3.50;;;;;;;0.50;53.50;102721.69;674810;29;1749;-84
2024/01/28 01:22:14;;;;;;;3.88;3.22;;;;;;;0.49;53.49;102717.28;674564;29;1188;-85
2024/01/28 01:22:34;;;;;;;3.95;2.80;;;;;;;0.50;53.34;102719.13;675633;29;1919;-84
2024/01/28 01:22:55;;;;;;;5.15;3.30;;;;;;;0.56;53.72;102728.16;674441;29;1465;-84
2024/01/28 01:23:15;;;;;;;4.53;3.00;;;;;;;0.53;53.37;102727.13;674525;29;1569;-85
2024/01/28 01:23:36;;;;;;;3.63;2.80;;;;;;;0.53;53.79;102724.56;674354;29;1512;-84
2024/01/28 01:23:57;;;;;;;2.83;2.50;;;;;;;0.57;53.48;102720.63;677285;29;948;-84
2024/01/28 01:24:17;;;;;;;3.40;2.80;;;;;;;0.62;53.67;102724.59;677318;29;939;-85
2024/01/28 01:24:38;;;;;;;3.53;3.20;;;;;;;0.61;53.26;102727.88;674551;29;1218;-85
2024/01/28 01:24:59;;;;;;;3.72;3.40;;;;;;;0.59;53.20;102724.25;674612;29;837;-84
2024/01/28 01:25:19;;;;;;;3.80;3.17;;;;;;;0.61;53.36;102724.41;676983;29;1673;-84
2024/01/28 01:25:40;;;;;;;4.20;2.70;;;;;;;0.57;53.43;102720.63;677592;29;1591;-84
2024/01/28 01:26:01;;;;;;;6.00;2.80;;;;;;;0.61;53.63;102730.44;677187;29;1288;-85
2024/01/28 01:26:22;;;;;;;6.00;3.33;;;;;;;0.60;53.49;102727.75;674498;29;1442;-84
2024/01/28 01:26:42;;;;;;;5.47;3.63;;;;;;;0.60;53.39;102720.03;671939;29;1001;-86
2024/01/28 01:27:04;;;;;;;3.53;3.13;;;;;;;0.58;53.56;102716.38;677148;29;1152;-86
2024/01/28 01:27:24;;;;;;;3.60;3.20;;;;;;;0.60;53.15;102720.91;677206;29;1527;-83
2024/01/28 01:27:45;;;;;;;4.23;3.23;;;;;;;0.65;53.33;102735.16;674315;29;1474;-84
2024/01/28 01:28:06;;;;;;;4.57;3.58;;;;;;;0.68;53.65;102732.00;674612;29;1054;-84
2024/01/28 01:28:31;;;;;;;5.90;3.55;;;;;;;0.62;53.21;102723.66;674633;29;1051;-84
2024/01/28 01:28:52;;;;;;;12.48;3.33;;;;;;;0.56;53.38;102711.09;676959;29;1498;-85
2024/01/28 01:29:13;;;;;;;10.00;3.33;;;;;;;0.58;53.43;102718.94;678650;29;1121;-85
2024/01/28 01:29:33;;;;;;;6.55;2.85;;;;;;;0.58;53.65;102716.38;676993;29;987;-84
2024/01/28 01:29:54;;;;;;;3.33;3.03;;;;;;;0.53;53.58;102716.84;674579;29;1501;-85
2024/01/28 01:30:15;;;;;;;5.07;2.90;;;;;;;0.61;53.59;102732.13;677076;29;1180;-84
2024/01/28 01:30:36;;;;;;;7.70;3.10;;;;;;;0.63;53.86;102717.75;674702;29;994;-85
2024/01/28 01:30:58;;;;;;;8.13;3.03;;;;;;;0.57;53.43;102717.13;679791;29;1200;-85
2024/01/28 01:31:19;;;;;;;4.55;2.63;;;;;;;0.59;53.62;102718.22;679683;29;1279;-84
2024/01/28 01:31:40;;;;;;;3.60;2.42;;;;;;;0.56;53.61;102716.25;679018;29;1547;-85
2024/01/28 01:32:01;;;;;;;3.20;2.17;;;;;;;0.59;53.62;102719.13;674475;29;1122;-85
2024/01/28 01:32:21;;;;;;;3.60;2.45;;;;;;;0.63;53.45;102721.25;677167;29;1027;-84
2024/01/28 01:32:42;;;;;;;2.88;2.67;;;;;;;0.64;53.61;102727.28;677713;29;1348;-85
2024/01/28 01:33:03;;;;;;;3.30;3.00;;;;;;;0.55;53.69;102705.81;677457;29;1333;-85
2024/01/28 01:33:23;;;;;;;3.23;2.90;;;;;;;0.61;53.66;102721.84;677293;29;792;-84
2024/01/28 01:33:45;;;;;;;3.63;2.97;;;;;;;0.59;53.72;102713.09;670213;29;1480;-85
2024/01/28 01:34:05;;;;;;;3.65;3.00;;;;;;;0.59;53.47;102708.84;674464;29;1077;-85
2024/01/28 01:34:27;;;;;;;3.75;3.00;;;;;;;0.58;53.79;102716.38;677176;29;1203;-85
2024/01/28 01:34:47;;;;;;;4.63;3.08;;;;;;;0.66;53.44;102726.69;679093;29;1511;-84
2024/01/28 01:35:09;;;;;;;8.07;3.33;;;;;;;0.60;53.70;102714.91;678260;29;1291;-84
2024/01/28 01:35:29;;;;;;;7.07;3.08;;;;;;;0.60;53.75;102714.91;675090;29;981;-84
2024/01/28 01:35:50;;;;;;;5.57;2.90;;;;;;;0.62;53.75;102714.31;675819;29;1483;-84
2024/01/28 01:36:11;;;;;;;3.40;2.73;;;;;;;0.66;53.65;102721.53;677357;29;1470;-85
2024/01/28 01:36:31;;;;;;;10.88;2.83;;;;;;;0.71;53.98;102729.72;672043;29;1424;-85
2024/01/28 01:36:52;;;;;;;14.70;3.13;;;;;;;0.65;53.73;102711.09;674300;29;1473;-84
2024/01/28 01:37:12;;;;;;;15.23;2.92;;;;;;;0.63;53.84;102708.41;677739;29;1106;-85
2024/01/28 01:37:33;;;;;;;5.90;2.90;;;;;;;0.63;53.59;102710.03;675200;29;1252;-84
2024/01/28 01:37:54;;;;;;;4.88;2.65;;;;;;;0.66;53.77;102711.25;674883;29;1695;-85
2024/01/28 01:38:15;;;;;;;2.70;2.40;;;;;;;0.62;53.71;102700.53;674890;29;1260;-84
2024/01/28 01:38:36;;;;;;;3.97;2.65;;;;;;;0.60;53.53;102705.50;677711;29;1129;-85
2024/01/28 01:38:57;;;;;;;4.30;2.90;;;;;;;0.63;53.92;102700.69;677559;29;1427;-84
2024/01/28 01:39:18;;;;;;;6.78;2.75;;;;;;;0.67;53.85;102717.31;678315;29;1153;-84
2024/01/28 01:39:39;;;;;;;6.87;2.80;;;;;;;0.73;53.85;102730.75;677960;29;1160;-84
2024/01/28 01:40:00;;;;;;;7.82;3.25;;;;;;;0.66;53.70;102715.53;677680;29;1205;-85
2024/01/28 01:40:21;;;;;;;6.03;3.55;;;;;;;0.62;53.70;102698.88;678028;29;1056;-84
2024/01/28 01:40:41;;;;;;;3.80;2.80;;;;;;;0.65;53.77;102708.53;680122;29;1554;-83
2024/01/28 01:41:02;;;;;;;2.60;2.20;;;;;;;0.73;53.78;102723.06;680336;29;985;-85
2024/01/28 01:41:25;;;;;;;5.20;2.08;;;;;;;0.66;53.54;102712.94;680339;29;1154;-85
2024/01/28 01:41:46;;;;;;;5.38;2.20;;;;;;;0.71;53.66;102722.00;676066;29;1580;-84
2024/01/28 01:42:07;;;;;;;4.63;2.20;;;;;;;0.71;53.59;102716.84;677697;29;1416;-84
2024/01/28 01:42:28;;;;;;;2.17;2.00;;;;;;;0.66;53.40;102705.25;677495;29;1264;-85
2024/01/28 01:42:51;;;;;;;2.33;2.15;;;;;;;0.71;53.82;102709.16;676817;29;1911;-85
2024/01/28 01:43:12;;;;;;;3.28;2.97;;;;;;;0.74;53.51;102719.75;677705;29;1105;-84
2024/01/28 01:43:33;;;;;;;3.88;3.47;;;;;;;0.71;53.43;102710.84;674917;29;1295;-84
2024/01/28 01:43:54;;;;;;;3.80;3.43;;;;;;;0.70;53.54;102717.63;677374;29;1480;-85
2024/01/28 01:44:14;;;;;;;3.50;3.03;;;;;;;0.71;53.45;102711.72;677661;29;1333;-85
2024/01/28 01:44:35;;;;;;;4.47;3.30;;;;;;;0.72;53.65;102715.22;678108;29;939;-85
2024/01/28 01:44:56;;;;;;;3.55;2.90;;;;;;;0.70;53.45;102709.91;677379;29;1492;-85
2024/01/28 01:45:16;;;;;;;3.03;2.72;;;;;;;0.72;53.46;102721.25;672287;29;1015;-84
2024/01/28 01:45:37;;;;;;;2.60;2.37;;;;;;;0.66;53.34;102705.25;674962;29;1127;-85
2024/01/28 01:45:58;;;;;;;4.05;2.25;;;;;;;0.71;53.48;102716.84;675088;29;1385;-84
2024/01/28 01:46:20;;;;;;;4.90;2.23;;;;;;;0.73;53.63;102720.47;674999;29;1352;-85
2024/01/28 01:46:44;;;;;;;4.25;2.05;;;;;;;0.71;53.67;102716.84;676194;29;1511;-84
2024/01/28 01:47:05;;;;;;;9.50;2.60;;;;;;;0.65;53.61;102714.59;679930;29;1367;-84
2024/01/28 01:47:26;;;;;;;10.98;2.90;;;;;;;0.64;53.39;102711.84;677682;29;836;-85
2024/01/28 01:47:47;;;;;;;11.50;2.53;;;;;;;0.69;53.40;102720.94;678640;29;1654;-85
2024/01/28 01:48:10;;;;;;;6.50;2.40;;;;;;;0.68;53.60;102711.44;680312;29;982;-85
2024/01/28 01:48:31;;;;;;;2.40;2.20;;;;;;;0.74;53.61;102722.31;678133;29;1011;-84
2024/01/28 01:48:52;;;;;;;3.50;2.60;;;;;;;0.66;53.64;102715.53;680399;28;1598;-84
2024/01/28 01:49:13;;;;;;;5.28;2.58;;;;;;;0.69;53.46;102720.03;677013;29;970;-84
2024/01/28 01:49:33;;;;;;;5.72;2.50;;;;;;;0.71;53.92;102724.56;675023;29;1192;-85
2024/01/28 01:49:54;;;;;;;4.63;2.45;;;;;;;0.65;53.39;102718.81;674836;29;1578;-84
2024/01/28 01:50:16;;;;;;;3.47;2.72;;;;;;;0.70;53.58;102727.91;676707;29;1175;-84